createdAt,value
2023-05-02T00:02:36.471Z,99966.70
2023-05-02T00:07:43.547Z,99965.23
2023-05-02T00:12:50.379Z,99960.75
2023-05-02T00:17:57.315Z,99954.60
2023-05-02T00:23:04.330Z,99951.81
2023-05-02T00:28:11.264Z,99954.83
2023-05-02T00:33:18.348Z,99948.50
2023-05-02T00:38:25.375Z,99942.86
2023-05-02T00:43:34.603Z,99938.19
2023-05-02T00:48:41.938Z,99934.58
2023-05-02T00:53:49.221Z,99932.64
2023-05-02T00:58:58.101Z,99928.38
2023-05-02T01:04:18.726Z,99929.02
2023-05-02T01:09:35.778Z,99929.61
2023-05-02T01:14:46.674Z,99928.23
2023-05-02T01:19:56.524Z,99925.66
2023-05-02T01:25:11.260Z,99926.34
2023-05-02T01:30:21.705Z,99932.71
2023-05-02T01:35:29.306Z,99936.95
2023-05-02T01:40:38.186Z,99941.91
2023-05-02T01:45:48.560Z,99948.50
2023-05-02T01:50:57.417Z,99947.50
2023-05-02T01:56:04.869Z,99947.34
2023-05-02T02:01:12.930Z,99947.58
2023-05-02T02:06:21.247Z,99947.73
2023-05-02T02:11:35.758Z,99941.88
2023-05-02T02:16:44.833Z,99941.36
2023-05-02T02:21:54.436Z,99949.92
2023-05-02T02:27:01.498Z,99952.58
2023-05-02T02:32:08.639Z,99961.23
2023-05-02T02:37:20.129Z,99976.23
2023-05-02T02:42:43.832Z,99982.48
2023-05-02T02:47:58.367Z,99982.53
2023-05-02T02:53:08.898Z,99983.70
2023-05-02T02:58:26.925Z,99987.86
2023-05-02T03:03:35.827Z,99990.09
2023-05-02T03:08:43.884Z,99994.48
2023-05-02T03:13:53.902Z,99991.90
2023-05-02T03:19:01.599Z,99994.59
2023-05-02T03:24:08.941Z,100002.61
2023-05-02T03:29:15.902Z,100012.40
2023-05-02T03:34:23.185Z,100020.63
2023-05-02T03:39:31.207Z,100020.02
2023-05-02T03:44:38.863Z,100031.40
2023-05-02T03:49:45.806Z,100034.48
2023-05-02T03:54:54.100Z,100033.01
2023-05-02T04:00:01.746Z,100049.52
2023-05-02T04:05:18.675Z,100060.20
2023-05-02T04:10:27.971Z,100070.17
2023-05-02T04:15:37.918Z,100077.80
2023-05-02T04:20:46.946Z,100081.59
2023-05-02T04:25:56.562Z,100088.98
2023-05-02T04:31:11.141Z,100088.79
2023-05-02T04:36:19.170Z,100096.04
2023-05-02T04:41:27.078Z,100110.98
2023-05-02T04:46:39.421Z,100121.85
2023-05-02T04:51:47.204Z,100139.72
2023-05-02T04:56:54.558Z,100146.89
2023-05-02T05:02:03.048Z,100147.02
2023-05-02T05:07:10.521Z,100144.15
2023-05-02T05:12:17.788Z,100145.22
2023-05-02T05:17:24.831Z,100154.48
2023-05-02T05:22:33.052Z,100157.41
2023-05-02T05:27:40.682Z,100168.85
2023-05-02T05:32:49.120Z,100168.41
2023-05-02T05:37:56.454Z,100173.34
2023-05-02T05:43:03.675Z,100176.32
2023-05-02T05:48:14.693Z,100187.85
2023-05-02T05:53:25.081Z,100187.30
2023-05-02T05:58:32.210Z,100201.28
2023-05-02T06:03:39.892Z,100208.46
2023-05-02T06:08:47.054Z,100213.58
2023-05-02T06:13:55.864Z,100217.26
2023-05-02T06:19:03.473Z,100223.62
2023-05-02T06:24:10.739Z,100226.30
2023-05-02T06:29:17.975Z,100231.93
2023-05-02T06:34:25.115Z,100235.42
2023-05-02T06:39:31.927Z,100246.80
2023-05-02T06:44:38.912Z,100247.39
2023-05-02T06:49:45.967Z,100253.80
2023-05-02T06:54:52.776Z,100259.61
2023-05-02T06:59:59.776Z,100266.14
2023-05-02T07:05:07.794Z,100268.52
2023-05-02T07:10:15.199Z,100273.46
2023-05-02T07:15:22.105Z,100276.63
2023-05-02T07:20:28.947Z,100276.35
2023-05-02T07:25:36.854Z,100282.29
2023-05-02T07:30:43.725Z,100278.48
2023-05-02T07:35:50.775Z,100289.79
2023-05-02T07:41:02.084Z,100297.10
2023-05-02T07:46:09.296Z,100302.19
2023-05-02T07:51:16.162Z,100306.52
2023-05-02T07:56:23.055Z,100306.91
2023-05-02T08:01:30.189Z,100318.14
2023-05-02T08:06:37.279Z,100320.79
2023-05-02T08:11:44.330Z,100326.89
2023-05-02T08:16:51.675Z,100328.52
2023-05-02T08:22:00.313Z,100331.61
2023-05-02T08:27:07.889Z,100329.81
2023-05-02T08:32:14.727Z,100330.54
2023-05-02T08:37:21.681Z,100327.79
2023-05-02T08:42:30.095Z,100333.04
2023-05-02T08:47:38.132Z,100338.71
2023-05-02T08:52:45.652Z,100345.73
2023-05-02T08:57:52.629Z,100348.09
2023-05-02T09:03:08.195Z,100352.16
2023-05-02T09:08:22.793Z,100354.82
2023-05-02T09:13:36.439Z,100359.27
2023-05-02T09:18:45.756Z,100369.84
2023-05-02T09:23:54.317Z,100373.40
2023-05-02T09:29:02.450Z,100379.11
2023-05-02T09:34:13.354Z,100385.83
2023-05-02T09:39:23.783Z,100389.36
2023-05-02T09:44:40.649Z,100393.92
2023-05-02T09:49:49.842Z,100402.34
2023-05-02T09:54:57.029Z,100407.21
2023-05-02T10:00:03.922Z,100410.47
2023-05-02T10:05:21.108Z,100412.98
2023-05-02T10:10:28.708Z,100416.69
2023-05-02T10:15:38.220Z,100417.18
2023-05-02T10:20:52.707Z,100421.66
2023-05-02T10:26:00.811Z,100427.16
2023-05-02T10:31:10.785Z,100426.15
2023-05-02T10:36:21.326Z,100429.95
2023-05-02T10:41:31.849Z,100426.41
2023-05-02T10:46:40.823Z,100433.89
2023-05-02T10:51:47.803Z,100435.19
2023-05-02T10:57:09.302Z,100437.59
2023-05-02T11:02:52.250Z,100439.44
2023-05-02T11:08:29.749Z,100439.46
2023-05-02T11:13:52.562Z,100439.52
2023-05-02T11:19:03.080Z,100445.61
2023-05-02T11:24:40.009Z,100446.55
2023-05-02T11:29:56.200Z,100446.95
2023-05-02T11:35:04.625Z,100451.77
2023-05-02T11:40:16.073Z,100448.04
2023-05-02T11:45:24.075Z,100458.56
2023-05-02T11:50:31.314Z,100462.37
2023-05-02T11:55:38.851Z,100458.65
2023-05-02T12:00:49.897Z,100464.59
2023-05-02T12:05:56.858Z,100461.27
2023-05-02T12:11:03.958Z,100455.79
2023-05-02T12:16:11.455Z,100455.75
2023-05-02T12:21:19.014Z,100454.58
2023-05-02T12:26:29.609Z,100468.18
2023-05-02T12:31:36.722Z,100473.66
2023-05-02T12:36:47.809Z,100482.35
2023-05-02T12:41:54.638Z,100514.58
2023-05-02T12:47:01.997Z,100543.84
2023-05-02T12:52:09.135Z,100558.52
2023-05-02T12:57:27.233Z,100575.30
2023-05-02T13:02:34.143Z,100595.08
2023-05-02T13:07:41.154Z,100595.48
2023-05-02T13:12:48.769Z,100588.52
2023-05-02T13:17:55.775Z,100570.89
2023-05-02T13:23:02.876Z,100561.95
2023-05-02T13:28:09.952Z,100547.38
2023-05-02T13:33:16.942Z,100535.21
2023-05-02T13:38:24.187Z,100537.39
2023-05-02T13:43:33.676Z,100539.32
2023-05-02T13:48:40.838Z,100543.48
2023-05-02T13:53:47.817Z,100543.46
2023-05-02T13:58:54.927Z,100541.02
2023-05-02T14:04:07.017Z,100534.95
2023-05-02T14:09:15.500Z,100530.73
2023-05-02T14:14:22.434Z,100534.76
2023-05-02T14:19:29.645Z,100528.99
2023-05-02T14:24:36.551Z,100531.80
2023-05-02T14:29:43.898Z,100532.63
2023-05-02T14:34:51.067Z,100530.27
2023-05-02T14:39:59.517Z,100532.81
2023-05-02T14:45:08.494Z,100530.98
2023-05-02T14:50:15.481Z,100535.95
2023-05-02T14:55:22.660Z,100543.30
2023-05-02T15:00:30.128Z,100545.55
2023-05-02T15:05:37.453Z,100549.35
2023-05-02T15:10:44.522Z,100547.80
2023-05-02T15:15:51.464Z,100548.30
2023-05-02T15:20:58.616Z,100561.73
2023-05-02T15:26:05.777Z,100568.84
2023-05-02T15:31:13.163Z,100570.54
2023-05-02T15:36:20.361Z,100570.15
2023-05-02T15:41:27.856Z,100573.53
2023-05-02T15:46:34.850Z,100576.44
2023-05-02T15:51:42.756Z,100580.75
2023-05-02T15:56:49.757Z,100584.92
2023-05-02T16:01:56.902Z,100591.19
2023-05-02T16:07:04.011Z,100591.80
2023-05-02T16:12:11.284Z,100597.83
2023-05-02T16:17:18.585Z,100597.88
2023-05-02T16:22:26.113Z,100597.13
2023-05-02T16:27:34.312Z,100597.76
2023-05-02T16:32:41.330Z,100603.54
2023-05-02T16:37:51.569Z,100608.80
2023-05-02T16:42:59.188Z,100615.59
2023-05-02T16:48:07.003Z,100623.97
2023-05-02T16:53:13.954Z,100633.98
2023-05-02T16:58:20.900Z,100641.20
2023-05-02T17:03:29.021Z,100642.15
2023-05-02T17:08:36.821Z,100649.29
2023-05-02T17:13:44.085Z,100653.27
2023-05-02T17:18:51.028Z,100655.07
2023-05-02T17:23:58.072Z,100659.98
2023-05-02T17:29:05.132Z,100663.89
2023-05-02T17:39:19.498Z,100673.75
2023-05-02T17:44:26.556Z,100676.64
2023-05-02T17:49:34.159Z,100683.40
2023-05-02T17:54:41.349Z,100692.73
2023-05-02T17:59:48.388Z,100699.03
2023-05-02T18:04:56.017Z,100706.13
2023-05-02T18:10:05.507Z,100715.52
2023-05-02T18:15:14.453Z,100723.88
2023-05-02T18:20:22.319Z,100733.52
2023-05-02T18:25:29.305Z,100737.96
2023-05-02T18:30:38.660Z,100742.15
2023-05-02T18:35:49.171Z,100747.76
2023-05-02T18:40:56.180Z,100757.25
2023-05-02T18:46:03.635Z,100764.11
2023-05-02T18:51:10.862Z,100771.88
2023-05-02T18:56:18.055Z,100770.61
2023-05-02T19:01:26.197Z,100776.95
2023-05-02T19:06:33.349Z,100784.14
2023-05-02T19:11:40.857Z,100794.64
2023-05-02T19:16:48.356Z,100802.58
2023-05-02T19:21:55.617Z,100814.74
2023-05-02T19:27:04.785Z,100821.45
2023-05-02T19:32:12.700Z,100826.54
2023-05-02T19:37:21.124Z,100835.02
2023-05-02T19:42:28.632Z,100837.61
2023-05-02T19:47:35.666Z,100844.19
2023-05-02T19:52:44.757Z,100854.23
2023-05-02T19:57:52.652Z,100859.00
2023-05-02T20:03:00.881Z,100863.71
2023-05-02T20:08:09.049Z,100869.16
2023-05-02T20:13:17.086Z,100874.08
2023-05-02T20:18:25.931Z,100881.60
2023-05-02T20:23:33.906Z,100885.16
2023-05-02T20:28:42.261Z,100886.89
2023-05-02T20:33:49.607Z,100894.23
2023-05-02T20:38:57.949Z,100898.77
2023-05-02T20:44:05.174Z,100901.80
2023-05-02T20:49:12.085Z,100904.42
2023-05-02T20:54:19.169Z,100904.80
2023-05-02T20:59:26.190Z,100909.83
2023-05-02T21:04:33.239Z,100918.91
2023-05-02T21:09:40.098Z,100930.09
2023-05-02T21:14:47.366Z,100932.99
2023-05-02T21:19:56.983Z,100935.71
2023-05-02T21:25:03.861Z,100945.27
2023-05-02T21:30:12.537Z,100946.96
2023-05-02T21:35:19.557Z,100951.00
2023-05-02T21:40:28.765Z,100960.04
2023-05-02T21:45:35.666Z,100963.91
2023-05-02T21:50:43.496Z,100965.89
2023-05-02T21:55:50.647Z,100967.84
2023-05-02T22:00:59.535Z,100973.93
2023-05-02T22:06:07.261Z,100972.44
2023-05-02T22:11:15.522Z,100974.93
2023-05-02T22:16:22.692Z,100982.25
2023-05-02T22:21:30.127Z,100989.59
2023-05-02T22:26:37.142Z,100999.72
2023-05-02T22:31:44.166Z,101003.45
2023-05-02T22:36:51.189Z,101012.18
2023-05-02T22:41:59.637Z,101015.23
2023-05-02T22:47:08.660Z,101017.77
2023-05-02T22:52:18.509Z,101015.12
2023-05-02T22:57:25.988Z,101016.10
2023-05-02T23:02:33.050Z,101012.31
2023-05-02T23:07:40.752Z,101013.27
2023-05-02T23:12:47.930Z,101014.11
2023-05-02T23:17:54.907Z,101024.70
2023-05-02T23:23:01.818Z,101042.19
2023-05-02T23:28:09.060Z,101054.70
2023-05-02T23:33:16.587Z,101053.98
2023-05-02T23:38:25.178Z,101054.75
2023-05-02T23:43:32.600Z,101055.39
2023-05-02T23:48:39.516Z,101056.32
2023-05-02T23:53:46.670Z,101059.20
2023-05-02T23:58:53.538Z,101061.90
